sensor_id;sensor_type;location;lat;lon;timestamp;temperature;humidity
7016;DHT22;3548;48.402;9.990;2022-10-26T00:00:03;11.50;99.90
7016;DHT22;3548;48.402;9.990;2022-10-26T00:02:28;11.40;99.90
7016;DHT22;3548;48.402;9.990;2022-10-26T00:04:54;11.40;99.90
7016;DHT22;3548;48.402;9.990;2022-10-26T00:07:19;11.40;99.90
7016;DHT22;3548;48.402;9.990;2022-10-26T00:09:45;11.50;99.90
7016;DHT22;3548;48.402;9.990;2022-10-26T00:12:10;11.50;99.90
7016;DHT22;3548;48.402;9.990;2022-10-26T00:14:36;11.50;99.90
7016;DHT22;3548;48.402;9.990;2022-10-26T00:17:01;11.40;99.90
7016;DHT22;3548;48.402;9.990;2022-10-26T00:19:27;11.40;99.90
7016;DHT22;3548;48.402;9.990;2022-10-26T00:21:53;11.50;99.90
7016;DHT22;3548;48.402;9.990;2022-10-26T00:24:18;11.50;99.90
7016;DHT22;3548;48.402;9.990;2022-10-26T00:26:44;11.50;99.90
7016;DHT22;3548;48.402;9.990;2022-10-26T00:29:11;11.50;99.90
7016;DHT22;3548;48.402;9.990;2022-10-26T00:31:37;11.50;99.90
7016;DHT22;3548;48.402;9.990;2022-10-26T00:34:04;11.50;99.90
7016;DHT22;3548;48.402;9.990;2022-10-26T00:36:29;11.50;99.90
7016;DHT22;3548;48.402;9.990;2022-10-26T00:38:55;11.50;99.90
7016;DHT22;3548;48.402;9.990;2022-10-26T00:41:28;11.40;99.90
7016;DHT22;3548;48.402;9.990;2022-10-26T00:43:54;11.40;99.90
7016;DHT22;3548;48.402;9.990;2022-10-26T00:46:31;11.40;99.90
7016;DHT22;3548;48.402;9.990;2022-10-26T00:49:07;11.40;99.90
7016;DHT22;3548;48.402;9.990;2022-10-26T00:51:41;11.40;99.90
7016;DHT22;3548;48.402;9.990;2022-10-26T00:54:12;11.40;99.90
7016;DHT22;3548;48.402;9.990;2022-10-26T00:56:39;11.40;99.90
7016;DHT22;3548;48.402;9.990;2022-10-26T00:59:08;11.40;99.90
7016;DHT22;3548;48.402;9.990;2022-10-26T01:01:36;11.40;99.90
7016;DHT22;3548;48.402;9.990;2022-10-26T01:04:02;11.40;99.90
7016;DHT22;3548;48.402;9.990;2022-10-26T01:06:29;11.40;99.90
7016;DHT22;3548;48.402;9.990;2022-10-26T01:08:55;11.50;99.90
7016;DHT22;3548;48.402;9.990;2022-10-26T01:11:21;11.50;99.90
7016;DHT22;3548;48.402;9.990;2022-10-26T01:13:47;11.50;99.90
7016;DHT22;3548;48.402;9.990;2022-10-26T01:16:34;11.40;99.90
7016;DHT22;3548;48.402;9.990;2022-10-26T01:21:57;11.50;99.90
7016;DHT22;3548;48.402;9.990;2022-10-26T01:27:35;11.50;99.90
7016;DHT22;3548;48.402;9.990;2022-10-26T01:33:42;11.50;99.90
7016;DHT22;3548;48.402;9.990;2022-10-26T01:35:50;11.60;99.90
7016;DHT22;3548;48.402;9.990;2022-10-26T01:43:41;11.50;99.90
7016;DHT22;3548;48.402;9.990;2022-10-26T01:46:08;11.50;99.90
7016;DHT22;3548;48.402;9.990;2022-10-26T01:48:35;11.50;99.90
7016;DHT22;3548;48.402;9.990;2022-10-26T01:51:02;11.50;99.90
7016;DHT22;3548;48.402;9.990;2022-10-26T01:53:29;11.60;99.90
7016;DHT22;3548;48.402;9.990;2022-10-26T01:55:55;11.60;99.90
7016;DHT22;3548;48.402;9.990;2022-10-26T01:58:35;11.60;99.90
7016;DHT22;3548;48.402;9.990;2022-10-26T02:04:05;11.60;99.90
7016;DHT22;3548;48.402;9.990;2022-10-26T02:06:35;11.60;99.90
7016;DHT22;3548;48.402;9.990;2022-10-26T02:12:37;11.60;99.90
7016;DHT22;3548;48.402;9.990;2022-10-26T02:15:08;11.70;99.90
7016;DHT22;3548;48.402;9.990;2022-10-26T02:18:29;11.70;99.90
7016;DHT22;3548;48.402;9.990;2022-10-26T02:20:41;11.60;99.90
7016;DHT22;3548;48.402;9.990;2022-10-26T02:23:09;11.60;99.90
7016;DHT22;3548;48.402;9.990;2022-10-26T02:25:43;11.50;99.90
7016;DHT22;3548;48.402;9.990;2022-10-26T02:28:12;11.40;99.90
7016;DHT22;3548;48.402;9.990;2022-10-26T02:30:39;11.40;99.90
7016;DHT22;3548;48.402;9.990;2022-10-26T02:33:07;11.30;99.90
7016;DHT22;3548;48.402;9.990;2022-10-26T02:35:35;11.20;99.90
7016;DHT22;3548;48.402;9.990;2022-10-26T02:38:06;11.10;99.90
7016;DHT22;3548;48.402;9.990;2022-10-26T02:40:33;11.10;99.90
7016;DHT22;3548;48.402;9.990;2022-10-26T02:43:04;11.10;99.90
7016;DHT22;3548;48.402;9.990;2022-10-26T02:45:35;11.20;99.90
7016;DHT22;3548;48.402;9.990;2022-10-26T02:48:04;11.20;99.90
7016;DHT22;3548;48.402;9.990;2022-10-26T02:50:45;11.20;99.90
7016;DHT22;3548;48.402;9.990;2022-10-26T02:53:24;11.20;99.90
7016;DHT22;3548;48.402;9.990;2022-10-26T02:55:51;11.20;99.90
7016;DHT22;3548;48.402;9.990;2022-10-26T02:58:22;11.20;99.90
7016;DHT22;3548;48.402;9.990;2022-10-26T03:00:49;11.20;99.90
7016;DHT22;3548;48.402;9.990;2022-10-26T03:03:15;11.10;99.90
7016;DHT22;3548;48.402;9.990;2022-10-26T03:05:42;11.10;99.90
7016;DHT22;3548;48.402;9.990;2022-10-26T03:08:08;11.10;99.90
7016;DHT22;3548;48.402;9.990;2022-10-26T03:10:39;11.10;99.90
7016;DHT22;3548;48.402;9.990;2022-10-26T03:13:06;11.10;99.90
7016;DHT22;3548;48.402;9.990;2022-10-26T03:15:32;11.10;99.90
7016;DHT22;3548;48.402;9.990;2022-10-26T03:17:57;11.10;99.90
7016;DHT22;3548;48.402;9.990;2022-10-26T03:20:23;11.10;99.90
7016;DHT22;3548;48.402;9.990;2022-10-26T03:22:48;11.10;99.90
7016;DHT22;3548;48.402;9.990;2022-10-26T03:25:14;11.10;99.90
7016;DHT22;3548;48.402;9.990;2022-10-26T03:27:40;11.10;99.90
7016;DHT22;3548;48.402;9.990;2022-10-26T03:30:07;11.10;99.90
7016;DHT22;3548;48.402;9.990;2022-10-26T03:32:32;11.00;99.90
7016;DHT22;3548;48.402;9.990;2022-10-26T03:34:58;11.00;99.90
7016;DHT22;3548;48.402;9.990;2022-10-26T03:37:24;11.00;99.90
7016;DHT22;3548;48.402;9.990;2022-10-26T03:39:49;11.10;99.90
7016;DHT22;3548;48.402;9.990;2022-10-26T03:42:15;11.10;99.90
7016;DHT22;3548;48.402;9.990;2022-10-26T03:44:40;11.10;99.90
7016;DHT22;3548;48.402;9.990;2022-10-26T03:47:06;11.10;99.90
7016;DHT22;3548;48.402;9.990;2022-10-26T03:49:32;11.10;99.90
7016;DHT22;3548;48.402;9.990;2022-10-26T03:51:57;11.10;99.90
7016;DHT22;3548;48.402;9.990;2022-10-26T03:54:23;11.00;99.90
7016;DHT22;3548;48.402;9.990;2022-10-26T03:56:49;11.00;99.90
7016;DHT22;3548;48.402;9.990;2022-10-26T03:59:14;11.00;99.90
7016;DHT22;3548;48.402;9.990;2022-10-26T04:01:40;11.00;99.90
7016;DHT22;3548;48.402;9.990;2022-10-26T04:04:06;11.00;99.90
7016;DHT22;3548;48.402;9.990;2022-10-26T04:06:31;11.10;99.90
7016;DHT22;3548;48.402;9.990;2022-10-26T04:08:57;11.10;99.90
7016;DHT22;3548;48.402;9.990;2022-10-26T04:11:27;11.10;99.90
7016;DHT22;3548;48.402;9.990;2022-10-26T04:13:52;11.20;99.90
7016;DHT22;3548;48.402;9.990;2022-10-26T04:16:18;11.20;99.90
7016;DHT22;3548;48.402;9.990;2022-10-26T04:18:43;11.20;99.90
7016;DHT22;3548;48.402;9.990;2022-10-26T04:21:10;11.20;99.90
7016;DHT22;3548;48.402;9.990;2022-10-26T04:23:36;11.20;99.90
7016;DHT22;3548;48.402;9.990;2022-10-26T04:26:06;11.20;99.90
7016;DHT22;3548;48.402;9.990;2022-10-26T04:28:32;11.30;99.90
7016;DHT22;3548;48.402;9.990;2022-10-26T04:30:57;11.20;99.90
7016;DHT22;3548;48.402;9.990;2022-10-26T04:33:23;11.30;99.90
7016;DHT22;3548;48.402;9.990;2022-10-26T04:35:48;11.30;99.90
7016;DHT22;3548;48.402;9.990;2022-10-26T04:38:14;11.30;99.90
7016;DHT22;3548;48.402;9.990;2022-10-26T04:40:39;11.30;99.90
7016;DHT22;3548;48.402;9.990;2022-10-26T04:43:05;11.30;99.90
7016;DHT22;3548;48.402;9.990;2022-10-26T04:45:31;11.30;99.90
7016;DHT22;3548;48.402;9.990;2022-10-26T04:48:01;11.40;99.90
7016;DHT22;3548;48.402;9.990;2022-10-26T04:50:28;11.40;99.90
7016;DHT22;3548;48.402;9.990;2022-10-26T04:52:53;11.40;99.90
7016;DHT22;3548;48.402;9.990;2022-10-26T04:55:19;11.40;99.90
7016;DHT22;3548;48.402;9.990;2022-10-26T04:57:44;11.30;99.90
7016;DHT22;3548;48.402;9.990;2022-10-26T05:00:10;11.30;99.90
7016;DHT22;3548;48.402;9.990;2022-10-26T05:02:36;11.30;99.90
7016;DHT22;3548;48.402;9.990;2022-10-26T05:05:01;11.30;99.90
7016;DHT22;3548;48.402;9.990;2022-10-26T05:07:27;11.30;99.90
7016;DHT22;3548;48.402;9.990;2022-10-26T05:09:52;11.30;99.90
7016;DHT22;3548;48.402;9.990;2022-10-26T05:12:18;11.30;99.90
7016;DHT22;3548;48.402;9.990;2022-10-26T05:14:44;11.30;99.90
7016;DHT22;3548;48.402;9.990;2022-10-26T05:17:09;11.30;99.90
7016;DHT22;3548;48.402;9.990;2022-10-26T05:19:35;11.30;99.90
7016;DHT22;3548;48.402;9.990;2022-10-26T05:22:00;11.30;99.90
7016;DHT22;3548;48.402;9.990;2022-10-26T05:24:26;11.30;99.90
7016;DHT22;3548;48.402;9.990;2022-10-26T05:26:52;11.40;99.90
7016;DHT22;3548;48.402;9.990;2022-10-26T05:29:17;11.30;99.90
7016;DHT22;3548;48.402;9.990;2022-10-26T05:31:43;11.40;99.90
7016;DHT22;3548;48.402;9.990;2022-10-26T05:34:08;11.40;99.90
7016;DHT22;3548;48.402;9.990;2022-10-26T05:36:34;11.40;99.90
7016;DHT22;3548;48.402;9.990;2022-10-26T05:38:59;11.40;99.90
7016;DHT22;3548;48.402;9.990;2022-10-26T05:41:25;11.40;99.90
7016;DHT22;3548;48.402;9.990;2022-10-26T05:43:50;11.50;99.90
7016;DHT22;3548;48.402;9.990;2022-10-26T05:46:16;11.50;99.90
7016;DHT22;3548;48.402;9.990;2022-10-26T05:48:41;11.40;99.90
7016;DHT22;3548;48.402;9.990;2022-10-26T05:51:07;11.40;99.90
7016;DHT22;3548;48.402;9.990;2022-10-26T05:53:33;11.40;99.90
7016;DHT22;3548;48.402;9.990;2022-10-26T05:55:58;11.40;99.90
7016;DHT22;3548;48.402;9.990;2022-10-26T05:58:24;11.40;99.90
7016;DHT22;3548;48.402;9.990;2022-10-26T06:06:56;11.40;99.90
7016;DHT22;3548;48.402;9.990;2022-10-26T06:09:23;11.50;99.90
7016;DHT22;3548;48.402;9.990;2022-10-26T06:11:49;11.50;99.90
7016;DHT22;3548;48.402;9.990;2022-10-26T06:14:15;11.60;99.90
7016;DHT22;3548;48.402;9.990;2022-10-26T06:20:02;11.60;99.90
7016;DHT22;3548;48.402;9.990;2022-10-26T06:30:20;11.60;99.90
7016;DHT22;3548;48.402;9.990;2022-10-26T06:32:48;11.60;99.90
7016;DHT22;3548;48.402;9.990;2022-10-26T06:38:08;11.70;99.90
7016;DHT22;3548;48.402;9.990;2022-10-26T06:40:37;11.70;99.90
7016;DHT22;3548;48.402;9.990;2022-10-26T06:43:11;11.80;99.90
7016;DHT22;3548;48.402;9.990;2022-10-26T06:45:40;11.70;99.90
7016;DHT22;3548;48.402;9.990;2022-10-26T06:48:15;11.80;99.90
7016;DHT22;3548;48.402;9.990;2022-10-26T06:50:51;11.80;99.90
7016;DHT22;3548;48.402;9.990;2022-10-26T06:53:32;11.80;99.90
7016;DHT22;3548;48.402;9.990;2022-10-26T06:56:00;11.90;99.90
7016;DHT22;3548;48.402;9.990;2022-10-26T06:58:33;11.90;99.90
7016;DHT22;3548;48.402;9.990;2022-10-26T07:00:59;12.00;99.90
7016;DHT22;3548;48.402;9.990;2022-10-26T07:03:25;12.10;99.90
7016;DHT22;3548;48.402;9.990;2022-10-26T07:05:51;12.20;99.90
7016;DHT22;3548;48.402;9.990;2022-10-26T07:08:17;12.30;99.90
7016;DHT22;3548;48.402;9.990;2022-10-26T07:10:42;12.40;99.90
7016;DHT22;3548;48.402;9.990;2022-10-26T07:13:09;12.40;99.90
7016;DHT22;3548;48.402;9.990;2022-10-26T07:15:36;12.50;99.90
7016;DHT22;3548;48.402;9.990;2022-10-26T07:18:03;12.50;99.90
7016;DHT22;3548;48.402;9.990;2022-10-26T07:20:35;12.60;99.90
7016;DHT22;3548;48.402;9.990;2022-10-26T07:23:02;12.70;99.90
7016;DHT22;3548;48.402;9.990;2022-10-26T07:25:28;12.70;99.90
7016;DHT22;3548;48.402;9.990;2022-10-26T07:27:57;12.80;99.90
7016;DHT22;3548;48.402;9.990;2022-10-26T07:30:24;12.80;99.90
7016;DHT22;3548;48.402;9.990;2022-10-26T07:32:49;12.90;99.90
7016;DHT22;3548;48.402;9.990;2022-10-26T07:35:15;12.90;99.90
7016;DHT22;3548;48.402;9.990;2022-10-26T07:37:40;13.00;99.90
7016;DHT22;3548;48.402;9.990;2022-10-26T07:40:06;13.00;99.90
7016;DHT22;3548;48.402;9.990;2022-10-26T07:42:32;13.10;99.90
7016;DHT22;3548;48.402;9.990;2022-10-26T07:44:58;13.20;99.90
7016;DHT22;3548;48.402;9.990;2022-10-26T07:47:24;13.30;99.90
7016;DHT22;3548;48.402;9.990;2022-10-26T07:49:49;13.40;99.90
7016;DHT22;3548;48.402;9.990;2022-10-26T07:52:15;13.50;99.90
7016;DHT22;3548;48.402;9.990;2022-10-26T07:54:40;13.60;99.90
7016;DHT22;3548;48.402;9.990;2022-10-26T07:57:06;13.60;99.90
7016;DHT22;3548;48.402;9.990;2022-10-26T07:59:31;13.70;99.90
7016;DHT22;3548;48.402;9.990;2022-10-26T08:01:57;13.70;99.90
7016;DHT22;3548;48.402;9.990;2022-10-26T08:04:23;13.80;99.90
7016;DHT22;3548;48.402;9.990;2022-10-26T08:06:48;13.80;99.90
7016;DHT22;3548;48.402;9.990;2022-10-26T08:09:14;13.90;99.90
7016;DHT22;3548;48.402;9.990;2022-10-26T08:11:39;14.00;99.90
7016;DHT22;3548;48.402;9.990;2022-10-26T08:14:05;14.00;99.90
7016;DHT22;3548;48.402;9.990;2022-10-26T08:16:30;14.10;99.90
7016;DHT22;3548;48.402;9.990;2022-10-26T08:18:56;14.10;99.90
7016;DHT22;3548;48.402;9.990;2022-10-26T08:21:22;14.20;99.90
7016;DHT22;3548;48.402;9.990;2022-10-26T08:23:47;14.30;99.90
7016;DHT22;3548;48.402;9.990;2022-10-26T08:26:13;14.40;99.90
7016;DHT22;3548;48.402;9.990;2022-10-26T08:28:39;14.50;99.90
7016;DHT22;3548;48.402;9.990;2022-10-26T08:31:05;14.60;99.90
7016;DHT22;3548;48.402;9.990;2022-10-26T08:33:31;14.80;99.90
7016;DHT22;3548;48.402;9.990;2022-10-26T08:35:59;14.80;99.90
7016;DHT22;3548;48.402;9.990;2022-10-26T08:38:25;14.80;99.90
7016;DHT22;3548;48.402;9.990;2022-10-26T08:40:52;14.80;99.90
7016;DHT22;3548;48.402;9.990;2022-10-26T08:43:41;14.80;99.90
7016;DHT22;3548;48.402;9.990;2022-10-26T08:48:41;14.80;99.90
7016;DHT22;3548;48.402;9.990;2022-10-26T08:51:15;14.90;99.90
7016;DHT22;3548;48.402;9.990;2022-10-26T08:53:50;15.00;99.90
7016;DHT22;3548;48.402;9.990;2022-10-26T08:56:36;15.00;99.90
7016;DHT22;3548;48.402;9.990;2022-10-26T08:59:10;15.10;99.90
7016;DHT22;3548;48.402;9.990;2022-10-26T09:01:37;15.10;99.90
7016;DHT22;3548;48.402;9.990;2022-10-26T09:04:11;15.00;99.90
7016;DHT22;3548;48.402;9.990;2022-10-26T09:06:47;15.00;99.90
7016;DHT22;3548;48.402;9.990;2022-10-26T09:10:00;15.00;99.90
7016;DHT22;3548;48.402;9.990;2022-10-26T09:25:47;14.90;99.90
7016;DHT22;3548;48.402;9.990;2022-10-26T09:28:17;14.90;99.90
7016;DHT22;3548;48.402;9.990;2022-10-26T09:30:44;14.90;99.90
7016;DHT22;3548;48.402;9.990;2022-10-26T09:33:21;14.90;99.90
7016;DHT22;3548;48.402;9.990;2022-10-26T09:36:02;15.00;99.90
7016;DHT22;3548;48.402;9.990;2022-10-26T09:38:41;15.00;99.90
7016;DHT22;3548;48.402;9.990;2022-10-26T09:46:30;15.30;99.90
7016;DHT22;3548;48.402;9.990;2022-10-26T09:49:00;15.50;99.90
7016;DHT22;3548;48.402;9.990;2022-10-26T09:51:28;15.60;99.90
7016;DHT22;3548;48.402;9.990;2022-10-26T09:53:57;15.70;99.90
7016;DHT22;3548;48.402;9.990;2022-10-26T09:56:26;15.80;99.90
7016;DHT22;3548;48.402;9.990;2022-10-26T09:58:54;15.80;99.90
7016;DHT22;3548;48.402;9.990;2022-10-26T10:06:38;16.20;99.90
7016;DHT22;3548;48.402;9.990;2022-10-26T10:09:23;16.30;99.90
7016;DHT22;3548;48.402;9.990;2022-10-26T10:12:00;16.50;99.90
7016;DHT22;3548;48.402;9.990;2022-10-26T10:14:29;16.60;99.90
7016;DHT22;3548;48.402;9.990;2022-10-26T10:16:59;16.80;99.90
7016;DHT22;3548;48.402;9.990;2022-10-26T10:19:28;16.80;99.90
7016;DHT22;3548;48.402;9.990;2022-10-26T10:24:42;17.10;99.90
7016;DHT22;3548;48.402;9.990;2022-10-26T10:27:18;17.10;99.90
7016;DHT22;3548;48.402;9.990;2022-10-26T10:29:54;17.10;99.90
7016;DHT22;3548;48.402;9.990;2022-10-26T10:32:27;17.00;99.90
7016;DHT22;3548;48.402;9.990;2022-10-26T10:34:56;17.10;99.90
7016;DHT22;3548;48.402;9.990;2022-10-26T10:39:58;17.00;99.90
7016;DHT22;3548;48.402;9.990;2022-10-26T10:42:29;17.00;99.90
7016;DHT22;3548;48.402;9.990;2022-10-26T10:44:56;17.00;99.90
7016;DHT22;3548;48.402;9.990;2022-10-26T10:47:31;17.00;99.90
7016;DHT22;3548;48.402;9.990;2022-10-26T10:50:15;17.00;99.90
7016;DHT22;3548;48.402;9.990;2022-10-26T10:52:41;17.00;99.90
7016;DHT22;3548;48.402;9.990;2022-10-26T10:55:17;17.10;99.90
7016;DHT22;3548;48.402;9.990;2022-10-26T10:57:51;17.10;99.90
7016;DHT22;3548;48.402;9.990;2022-10-26T11:00:19;17.20;99.90
7016;DHT22;3548;48.402;9.990;2022-10-26T11:08:05;17.10;99.90
7016;DHT22;3548;48.402;9.990;2022-10-26T11:10:36;17.10;99.90
7016;DHT22;3548;48.402;9.990;2022-10-26T11:13:09;17.10;99.90
7016;DHT22;3548;48.402;9.990;2022-10-26T11:15:38;17.20;99.90
7016;DHT22;3548;48.402;9.990;2022-10-26T11:18:11;17.20;99.90
7016;DHT22;3548;48.402;9.990;2022-10-26T11:20:46;17.30;99.90
7016;DHT22;3548;48.402;9.990;2022-10-26T11:23:31;17.40;99.90
7016;DHT22;3548;48.402;9.990;2022-10-26T11:26:07;17.40;99.90
7016;DHT22;3548;48.402;9.990;2022-10-26T11:28:56;17.50;99.90
7016;DHT22;3548;48.402;9.990;2022-10-26T11:32:12;17.50;99.90
7016;DHT22;3548;48.402;9.990;2022-10-26T11:34:38;17.70;99.90
7016;DHT22;3548;48.402;9.990;2022-10-26T11:37:23;17.90;99.90
7016;DHT22;3548;48.402;9.990;2022-10-26T11:43:00;18.50;99.90
7016;DHT22;3548;48.402;9.990;2022-10-26T11:45:36;18.80;99.90
7016;DHT22;3548;48.402;9.990;2022-10-26T11:48:30;18.90;99.90
7016;DHT22;3548;48.402;9.990;2022-10-26T11:50:54;19.00;99.90
7016;DHT22;3548;48.402;9.990;2022-10-26T11:53:31;19.10;99.90
7016;DHT22;3548;48.402;9.990;2022-10-26T11:56:01;19.20;99.90
7016;DHT22;3548;48.402;9.990;2022-10-26T11:58:28;19.30;99.90
7016;DHT22;3548;48.402;9.990;2022-10-26T12:01:00;19.30;99.90
7016;DHT22;3548;48.402;9.990;2022-10-26T12:03:33;19.30;99.90
7016;DHT22;3548;48.402;9.990;2022-10-26T12:06:01;19.30;99.90
7016;DHT22;3548;48.402;9.990;2022-10-26T12:08:34;19.30;99.90
7016;DHT22;3548;48.402;9.990;2022-10-26T12:13:41;19.40;99.90
7016;DHT22;3548;48.402;9.990;2022-10-26T12:16:14;19.50;99.90
7016;DHT22;3548;48.402;9.990;2022-10-26T12:18:55;19.50;99.90
7016;DHT22;3548;48.402;9.990;2022-10-26T12:21:26;19.60;99.90
7016;DHT22;3548;48.402;9.990;2022-10-26T12:23:59;19.70;99.90
7016;DHT22;3548;48.402;9.990;2022-10-26T12:29:24;19.90;99.90
7016;DHT22;3548;48.402;9.990;2022-10-26T12:31:50;19.80;99.90
7016;DHT22;3548;48.402;9.990;2022-10-26T12:34:22;19.80;99.90
7016;DHT22;3548;48.402;9.990;2022-10-26T12:37:09;19.60;99.90
7016;DHT22;3548;48.402;9.990;2022-10-26T12:39:38;19.60;99.90
7016;DHT22;3548;48.402;9.990;2022-10-26T13:07:09;19.90;99.90
7016;DHT22;3548;48.402;9.990;2022-10-26T13:09:30;20.00;99.90
7016;DHT22;3548;48.402;9.990;2022-10-26T13:12:00;20.10;99.90
7016;DHT22;3548;48.402;9.990;2022-10-26T13:14:35;20.30;99.90
7016;DHT22;3548;48.402;9.990;2022-10-26T13:17:21;20.40;99.90
7016;DHT22;3548;48.402;9.990;2022-10-26T13:19:54;20.50;99.90
7016;DHT22;3548;48.402;9.990;2022-10-26T13:22:21;20.50;99.90
7016;DHT22;3548;48.402;9.990;2022-10-26T13:24:55;20.50;99.90
7016;DHT22;3548;48.402;9.990;2022-10-26T13:27:39;20.50;99.90
7016;DHT22;3548;48.402;9.990;2022-10-26T13:30:17;20.50;99.90
7016;DHT22;3548;48.402;9.990;2022-10-26T13:32:52;20.50;99.90
7016;DHT22;3548;48.402;9.990;2022-10-26T13:35:20;20.40;99.90
7016;DHT22;3548;48.402;9.990;2022-10-26T13:37:48;20.40;99.90
7016;DHT22;3548;48.402;9.990;2022-10-26T13:40:16;20.50;99.90
7016;DHT22;3548;48.402;9.990;2022-10-26T13:43:02;20.40;99.90
7016;DHT22;3548;48.402;9.990;2022-10-26T13:45:57;20.30;99.90
7016;DHT22;3548;48.402;9.990;2022-10-26T13:48:38;20.30;99.90
7016;DHT22;3548;48.402;9.990;2022-10-26T13:51:28;20.40;99.90
7016;DHT22;3548;48.402;9.990;2022-10-26T13:54:02;20.40;99.90
7016;DHT22;3548;48.402;9.990;2022-10-26T13:56:44;20.60;99.90
7016;DHT22;3548;48.402;9.990;2022-10-26T13:59:13;20.70;99.90
7016;DHT22;3548;48.402;9.990;2022-10-26T14:01:39;20.80;99.90
7016;DHT22;3548;48.402;9.990;2022-10-26T14:04:16;21.00;99.90
7016;DHT22;3548;48.402;9.990;2022-10-26T14:06:47;21.20;99.90
7016;DHT22;3548;48.402;9.990;2022-10-26T14:09:15;21.30;99.90
7016;DHT22;3548;48.402;9.990;2022-10-26T14:11:59;21.40;99.90
7016;DHT22;3548;48.402;9.990;2022-10-26T14:14:29;21.40;99.90
7016;DHT22;3548;48.402;9.990;2022-10-26T14:16:56;21.30;99.90
7016;DHT22;3548;48.402;9.990;2022-10-26T14:19:33;21.20;99.90
7016;DHT22;3548;48.402;9.990;2022-10-26T14:21:59;21.10;99.90
7016;DHT22;3548;48.402;9.990;2022-10-26T14:24:34;21.10;99.90
7016;DHT22;3548;48.402;9.990;2022-10-26T14:27:02;21.00;99.90
7016;DHT22;3548;48.402;9.990;2022-10-26T14:29:30;20.90;99.90
7016;DHT22;3548;48.402;9.990;2022-10-26T14:31:56;20.80;99.90
7016;DHT22;3548;48.402;9.990;2022-10-26T14:34:22;20.70;99.90
7016;DHT22;3548;48.402;9.990;2022-10-26T14:36:56;20.70;99.90
7016;DHT22;3548;48.402;9.990;2022-10-26T14:39:38;20.70;99.90
7016;DHT22;3548;48.402;9.990;2022-10-26T14:42:34;20.80;99.90
7016;DHT22;3548;48.402;9.990;2022-10-26T14:45:02;20.80;99.90
7016;DHT22;3548;48.402;9.990;2022-10-26T14:47:30;20.80;99.90
7016;DHT22;3548;48.402;9.990;2022-10-26T14:49:58;20.80;99.90
7016;DHT22;3548;48.402;9.990;2022-10-26T14:52:37;20.80;99.90
7016;DHT22;3548;48.402;9.990;2022-10-26T14:57:38;20.70;99.90
7016;DHT22;3548;48.402;9.990;2022-10-26T15:00:25;20.70;99.90
7016;DHT22;3548;48.402;9.990;2022-10-26T15:02:53;20.60;99.90
7016;DHT22;3548;48.402;9.990;2022-10-26T15:07:48;20.60;99.90
7016;DHT22;3548;48.402;9.990;2022-10-26T15:15:44;20.40;99.90
7016;DHT22;3548;48.402;9.990;2022-10-26T15:18:27;20.30;99.90
7016;DHT22;3548;48.402;9.990;2022-10-26T15:20:54;20.20;99.90
7016;DHT22;3548;48.402;9.990;2022-10-26T15:23:22;20.20;99.90
7016;DHT22;3548;48.402;9.990;2022-10-26T15:25:56;20.10;99.90
7016;DHT22;3548;48.402;9.990;2022-10-26T15:28:31;20.00;99.90
7016;DHT22;3548;48.402;9.990;2022-10-26T15:31:03;19.90;99.90
7016;DHT22;3548;48.402;9.990;2022-10-26T15:33:29;19.90;99.90
7016;DHT22;3548;48.402;9.990;2022-10-26T15:38:34;19.70;99.90
7016;DHT22;3548;48.402;9.990;2022-10-26T15:40:59;19.70;99.90
7016;DHT22;3548;48.402;9.990;2022-10-26T15:43:25;19.60;99.90
7016;DHT22;3548;48.402;9.990;2022-10-26T15:45:51;19.50;99.90
7016;DHT22;3548;48.402;9.990;2022-10-26T15:48:18;19.30;99.90
7016;DHT22;3548;48.402;9.990;2022-10-26T15:50:47;19.30;99.90
7016;DHT22;3548;48.402;9.990;2022-10-26T15:53:25;19.20;99.90
7016;DHT22;3548;48.402;9.990;2022-10-26T15:55:56;19.20;99.90
7016;DHT22;3548;48.402;9.990;2022-10-26T15:58:23;19.10;99.90
7016;DHT22;3548;48.402;9.990;2022-10-26T16:00:49;19.00;99.90
7016;DHT22;3548;48.402;9.990;2022-10-26T16:03:22;18.90;99.90
7016;DHT22;3548;48.402;9.990;2022-10-26T16:05:54;18.80;99.90
7016;DHT22;3548;48.402;9.990;2022-10-26T16:08:20;18.70;99.90
7016;DHT22;3548;48.402;9.990;2022-10-26T16:10:46;18.60;99.90
7016;DHT22;3548;48.402;9.990;2022-10-26T16:13:13;18.60;99.90
7016;DHT22;3548;48.402;9.990;2022-10-26T16:15:39;18.50;99.90
7016;DHT22;3548;48.402;9.990;2022-10-26T16:18:04;18.40;99.90
7016;DHT22;3548;48.402;9.990;2022-10-26T16:20:30;18.40;99.90
7016;DHT22;3548;48.402;9.990;2022-10-26T16:22:56;18.30;99.90
7016;DHT22;3548;48.402;9.990;2022-10-26T16:25:24;18.20;99.90
7016;DHT22;3548;48.402;9.990;2022-10-26T16:27:51;18.20;99.90
7016;DHT22;3548;48.402;9.990;2022-10-26T16:30:18;18.10;99.90
7016;DHT22;3548;48.402;9.990;2022-10-26T16:32:44;18.00;99.90
7016;DHT22;3548;48.402;9.990;2022-10-26T16:35:11;17.90;99.90
7016;DHT22;3548;48.402;9.990;2022-10-26T16:37:37;17.90;99.90
7016;DHT22;3548;48.402;9.990;2022-10-26T16:40:03;17.80;99.90
7016;DHT22;3548;48.402;9.990;2022-10-26T16:42:30;17.80;99.90
7016;DHT22;3548;48.402;9.990;2022-10-26T16:44:56;17.70;99.90
7016;DHT22;3548;48.402;9.990;2022-10-26T16:47:21;17.70;99.90
7016;DHT22;3548;48.402;9.990;2022-10-26T16:49:47;17.70;99.90
7016;DHT22;3548;48.402;9.990;2022-10-26T16:52:13;17.60;99.90
7016;DHT22;3548;48.402;9.990;2022-10-26T16:54:38;17.60;99.90
7016;DHT22;3548;48.402;9.990;2022-10-26T16:57:04;17.50;99.90
7016;DHT22;3548;48.402;9.990;2022-10-26T16:59:29;17.50;99.90
7016;DHT22;3548;48.402;9.990;2022-10-26T17:01:55;17.40;99.90
7016;DHT22;3548;48.402;9.990;2022-10-26T17:04:21;17.40;99.90
7016;DHT22;3548;48.402;9.990;2022-10-26T17:06:47;17.30;99.90
7016;DHT22;3548;48.402;9.990;2022-10-26T17:09:12;17.20;99.90
7016;DHT22;3548;48.402;9.990;2022-10-26T17:11:38;17.10;99.90
7016;DHT22;3548;48.402;9.990;2022-10-26T17:14:03;17.00;99.90
7016;DHT22;3548;48.402;9.990;2022-10-26T17:16:29;16.90;99.90
7016;DHT22;3548;48.402;9.990;2022-10-26T17:18:54;16.80;99.90
7016;DHT22;3548;48.402;9.990;2022-10-26T17:21:31;16.80;99.90
7016;DHT22;3548;48.402;9.990;2022-10-26T17:23:59;16.70;99.90
7016;DHT22;3548;48.402;9.990;2022-10-26T17:26:25;16.60;99.90
7016;DHT22;3548;48.402;9.990;2022-10-26T17:28:51;16.60;99.90
7016;DHT22;3548;48.402;9.990;2022-10-26T17:31:17;16.50;99.90
7016;DHT22;3548;48.402;9.990;2022-10-26T17:33:44;16.40;99.90
7016;DHT22;3548;48.402;9.990;2022-10-26T17:36:11;16.40;99.90
7016;DHT22;3548;48.402;9.990;2022-10-26T17:38:39;16.40;99.90
7016;DHT22;3548;48.402;9.990;2022-10-26T17:41:11;16.20;99.90
7016;DHT22;3548;48.402;9.990;2022-10-26T17:43:38;16.20;99.90
7016;DHT22;3548;48.402;9.990;2022-10-26T17:46:06;16.20;99.90
7016;DHT22;3548;48.402;9.990;2022-10-26T17:48:32;16.10;99.90
7016;DHT22;3548;48.402;9.990;2022-10-26T17:50:59;16.10;99.90
7016;DHT22;3548;48.402;9.990;2022-10-26T17:53:25;16.10;99.90
7016;DHT22;3548;48.402;9.990;2022-10-26T17:56:12;16.00;99.90
7016;DHT22;3548;48.402;9.990;2022-10-26T17:58:39;16.00;99.90
7016;DHT22;3548;48.402;9.990;2022-10-26T18:01:07;16.00;99.90
7016;DHT22;3548;48.402;9.990;2022-10-26T18:03:33;15.90;99.90
7016;DHT22;3548;48.402;9.990;2022-10-26T18:06:00;15.90;99.90
7016;DHT22;3548;48.402;9.990;2022-10-26T18:08:28;15.80;99.90
7016;DHT22;3548;48.402;9.990;2022-10-26T18:10:54;15.70;99.90
7016;DHT22;3548;48.402;9.990;2022-10-26T18:13:20;15.60;99.90
7016;DHT22;3548;48.402;9.990;2022-10-26T18:15:46;15.50;99.90
7016;DHT22;3548;48.402;9.990;2022-10-26T18:18:12;15.50;99.90
7016;DHT22;3548;48.402;9.990;2022-10-26T18:20:38;15.40;99.90